Time;durP1;ratioP1;P1;durP2;ratioP2;P2;SDS_P1;SDS_P2;PMS_P1;PMS_P2;Temp;Humidity;BMP_temperature;BMP_pressure;BME280_temperature;BME280_humidity;BME280_pressure;Samples;Min_cycle;Max_cycle;Signal;HPM_P1;HPM_P2
2022/05/27 00:00:20;;;;;;;13.50;6.88;;;16.90;88.20;;;;;;5028669;28;20033;-73
2022/05/27 00:02:48;;;;;;;14.40;6.75;;;16.70;89.80;;;;;;5030877;28;20029;-73
2022/05/27 00:05:14;;;;;;;11.05;6.97;;;16.60;90.50;;;;;;5028934;28;20500;-73
2022/05/27 00:07:40;;;;;;;13.15;7.25;;;16.50;91.10;;;;;;5034920;28;20029;-73
2022/05/27 00:10:07;;;;;;;11.15;7.47;;;16.40;91.60;;;;;;5033531;28;20057;-73
2022/05/27 00:12:33;;;;;;;15.90;8.75;;;16.30;92.00;;;;;;5032515;28;20024;-73
2022/05/27 00:14:59;;;;;;;12.90;7.95;;;16.30;92.50;;;;;;5035781;28;20898;-73
2022/05/27 00:17:25;;;;;;;12.85;8.70;;;16.20;93.00;;;;;;5031352;28;20500;-73
2022/05/27 00:19:50;;;;;;;14.55;8.75;;;16.20;93.20;;;;;;5033732;28;20036;-73
2022/05/27 00:22:16;;;;;;;15.30;8.65;;;16.20;93.50;;;;;;5033413;28;20029;-73
2022/05/27 00:24:42;;;;;;;8.57;7.68;;;16.20;93.60;;;;;;5033397;28;20036;-73
2022/05/27 00:27:08;;;;;;;11.95;9.55;;;16.20;93.90;;;;;;5032246;28;20056;-73
2022/05/27 00:29:35;;;;;;;16.02;9.00;;;16.20;94.10;;;;;;5031274;28;20044;-73
2022/05/27 00:32:01;;;;;;;12.90;9.15;;;16.10;94.30;;;;;;5035524;28;20342;-73
2022/05/27 00:34:27;;;;;;;11.18;8.77;;;16.10;94.50;;;;;;5032065;28;20037;-73
2022/05/27 00:36:53;;;;;;;13.13;9.68;;;16.00;94.60;;;;;;5033763;28;20032;-73
2022/05/27 00:39:18;;;;;;;18.73;10.00;;;16.00;94.80;;;;;;5030649;28;20488;-74
2022/05/27 00:41:44;;;;;;;14.25;10.30;;;16.10;94.90;;;;;;5033926;28;20025;-73
2022/05/27 00:44:11;;;;;;;12.18;9.55;;;16.10;95.00;;;;;;5030884;28;20037;-73
2022/05/27 00:46:40;;;;;;;17.25;10.27;;;16.10;95.00;;;;;;5034381;28;20578;-73
2022/05/27 00:49:28;;;;;;;16.30;10.48;;;16.10;95.10;;;;;;5031243;28;20032;-73
2022/05/27 00:52:08;;;;;;;11.75;9.45;;;16.10;95.30;;;;;;5030668;28;20650;-73
2022/05/27 00:54:34;;;;;;;15.82;10.70;;;16.00;95.30;;;;;;5035765;28;20830;-73
2022/05/27 00:57:19;;;;;;;14.52;10.73;;;16.00;95.50;;;;;;5030452;28;20037;-73
2022/05/27 00:59:48;;;;;;;16.13;11.35;;;16.00;95.50;;;;;;5030615;28;20029;-73
2022/05/27 01:02:14;;;;;;;16.63;10.98;;;15.90;95.70;;;;;;5030439;28;20136;-73
2022/05/27 01:04:40;;;;;;;14.32;11.48;;;15.90;95.80;;;;;;5033100;28;20025;-73
2022/05/27 01:07:06;;;;;;;18.60;12.00;;;15.90;95.90;;;;;;5034363;28;20037;-73
2022/05/27 01:09:36;;;;;;;21.70;11.80;;;16.00;95.80;;;;;;5034408;28;20049;-73
2022/05/27 01:12:17;;;;;;;12.50;11.02;;;15.90;96.00;;;;;;5031600;28;20044;-71
2022/05/27 01:14:54;;;;;;;16.35;11.15;;;15.90;96.00;;;;;;5030822;28;20076;-72
2022/05/27 01:17:32;;;;;;;16.58;11.32;;;15.90;96.10;;;;;;5030690;28;20118;-74
2022/05/27 01:20:19;;;;;;;15.75;10.98;;;15.90;96.10;;;;;;5031911;28;20032;-73
2022/05/27 01:22:46;;;;;;;18.15;11.18;;;15.90;96.20;;;;;;5032609;28;20044;-74
2022/05/27 01:25:50;;;;;;;15.23;11.10;;;15.90;96.10;;;;;;5030163;28;20789;-72
2022/05/27 01:28:15;;;;;;;14.98;11.43;;;16.00;96.10;;;;;;5029139;28;20040;-72
2022/05/27 01:30:47;;;;;;;15.93;11.52;;;16.00;96.00;;;;;;5030943;28;20025;-74
2022/05/27 01:33:50;;;;;;;15.50;10.35;;;16.00;96.00;;;;;;5033734;28;20041;-72
2022/05/27 01:36:16;;;;;;;17.65;10.55;;;16.00;96.00;;;;;;5023180;28;20490;-74
2022/05/27 01:38:58;;;;;;;18.42;11.25;;;16.00;96.10;;;;;;5031006;28;20040;-74
2022/05/27 01:41:44;;;;;;;13.75;10.65;;;16.00;96.20;;;;;;5029794;28;20032;-74
2022/05/27 01:44:38;;;;;;;14.05;10.65;;;16.00;96.10;;;;;;5033305;28;20556;-74
2022/05/27 01:47:06;;;;;;;15.85;10.40;;;15.90;96.10;;;;;;5020952;28;20041;-74
2022/05/27 01:49:42;;;;;;;14.07;11.02;;;16.00;96.20;;;;;;5032881;28;20034;-74
2022/05/27 01:52:14;;;;;;;14.73;11.18;;;16.00;96.00;;;;;;5035845;28;20484;-81
2022/05/27 01:55:00;;;;;;;13.15;10.18;;;16.00;96.10;;;;;;5032574;28;20033;-81
2022/05/27 01:57:36;;;;;;;15.13;10.93;;;16.00;96.20;;;;;;5035569;28;20041;-80
2022/05/27 02:00:12;;;;;;;13.33;9.73;;;16.00;96.00;;;;;;5033667;28;20037;-80
2022/05/27 02:02:47;;;;;;;17.73;10.23;;;16.00;96.10;;;;;;5035296;28;20276;-80
2022/05/27 02:05:53;;;;;;;11.48;9.90;;;16.00;96.20;;;;;;5029420;28;20112;-80
2022/05/27 02:08:22;;;;;;;12.48;9.95;;;16.00;96.10;;;;;;5036488;28;20033;-80
2022/05/27 02:10:51;;;;;;;12.90;10.00;;;16.10;96.20;;;;;;5030571;28;20021;-80
2022/05/27 02:13:23;;;;;;;14.85;10.98;;;16.10;96.10;;;;;;5023704;28;20029;-81
2022/05/27 02:15:52;;;;;;;12.98;9.90;;;16.10;96.00;;;;;;5037217;28;20073;-80
2022/05/27 02:18:34;;;;;;;12.77;9.93;;;16.10;96.10;;;;;;5037327;28;20052;-80
2022/05/27 02:24:16;;;;;;;12.23;9.68;;;16.10;95.90;;;;;;4971327;28;20069;-80
2022/05/27 02:26:49;;;;;;;11.75;9.32;;;16.20;95.90;;;;;;4947187;28;20108;-79
2022/05/27 02:29:22;;;;;;;12.75;9.50;;;16.10;95.80;;;;;;4953064;28;20478;-79
2022/05/27 02:31:53;;;;;;;13.25;10.10;;;16.20;95.90;;;;;;4964445;28;20840;-80
2022/05/27 02:37:28;;;;;;;11.52;9.02;;;16.20;95.90;;;;;;4942955;28;20198;-80
2022/05/27 02:39:56;;;;;;;12.90;9.32;;;16.20;95.90;;;;;;4947223;28;20505;-80
2022/05/27 02:42:41;;;;;;;11.60;8.70;;;16.10;95.80;;;;;;4940293;28;20091;-80
2022/05/27 02:45:40;;;;;;;12.13;8.57;;;16.20;95.90;;;;;;4938701;28;20035;-80
2022/05/27 02:48:43;;;;;;;12.15;8.75;;;16.10;95.90;;;;;;4900370;28;20447;-78
2022/05/27 02:51:31;;;;;;;10.38;8.18;;;16.20;96.20;;;;;;4924661;28;20095;-78
2022/05/27 02:54:26;;;;;;;11.98;8.98;;;16.10;95.90;;;;;;4941283;28;20047;-78
2022/05/27 02:57:12;;;;;;;11.75;8.35;;;16.10;96.00;;;;;;4940602;28;20050;-78
2022/05/27 02:59:40;;;;;;;9.77;7.57;;;16.10;95.90;;;;;;4941562;28;20035;-78
2022/05/27 03:02:16;;;;;;;9.15;7.47;;;16.10;95.90;;;;;;4936220;28;20035;-79
2022/05/27 03:04:45;;;;;;;;;;;16.00;95.90;;;;;;4947404;28;20106;-78
2022/05/27 03:07:45;;;;;;;10.10;7.05;;;16.10;95.90;;;;;;4936215;28;19922;-79
2022/05/27 03:10:19;;;;;;;8.43;6.63;;;16.00;95.90;;;;;;4942140;28;20038;-77
2022/05/27 03:13:05;;;;;;;11.73;8.15;;;16.00;95.90;;;;;;4952876;28;20055;-78
2022/05/27 03:15:50;;;;;;;9.30;7.03;;;16.00;96.00;;;;;;4955653;28;20062;-79
2022/05/27 03:19:00;;;;;;;11.07;8.73;;;16.00;96.00;;;;;;4948375;28;20038;-79
2022/05/27 03:21:29;;;;;;;10.55;7.43;;;16.00;96.00;;;;;;4942825;28;20041;-79
2022/05/27 03:24:08;;;;;;;9.85;7.53;;;16.00;96.00;;;;;;4947171;28;20530;-79
2022/05/27 03:26:49;;;;;;;8.57;6.85;;;16.00;96.10;;;;;;4944265;28;20070;-79
2022/05/27 03:29:14;;;;;;;8.10;7.28;;;16.00;96.10;;;;;;4945792;28;20043;-78
2022/05/27 03:31:45;;;;;;;9.48;7.47;;;15.90;96.00;;;;;;4944489;28;20426;-79
2022/05/27 03:34:27;;;;;;;9.07;6.95;;;16.00;96.10;;;;;;4944470;28;20054;-79
2022/05/27 03:37:13;;;;;;;10.20;6.63;;;15.90;96.10;;;;;;4940398;28;20039;-79
2022/05/27 03:39:42;;;;;;;7.82;6.43;;;16.00;96.10;;;;;;4946870;28;20035;-79
2022/05/27 03:42:09;;;;;;;9.00;7.32;;;16.00;96.10;;;;;;4943323;28;20031;-79
2022/05/27 03:44:36;;;;;;;9.18;6.70;;;16.00;96.00;;;;;;4951408;28;20071;-80
2022/05/27 03:47:02;;;;;;;7.70;6.90;;;16.00;96.00;;;;;;4944222;28;20031;-79
2022/05/27 03:49:28;;;;;;;12.75;7.22;;;16.10;96.00;;;;;;4949571;28;20042;-79
2022/05/27 03:52:01;;;;;;;10.18;7.40;;;16.00;96.00;;;;;;4959740;28;20133;-79
2022/05/27 03:54:31;;;;;;;10.90;7.50;;;16.10;96.00;;;;;;4948060;28;20410;-79
2022/05/27 03:56:58;;;;;;;11.60;7.32;;;16.10;96.00;;;;;;4931544;29;20541;-78
2022/05/27 03:59:24;;;;;;;13.30;7.88;;;16.10;96.00;;;;;;4936065;28;20114;-79
2022/05/27 04:01:51;;;;;;;10.63;7.20;;;16.10;96.00;;;;;;4944638;28;20098;-79
2022/05/27 04:04:20;;;;;;;12.15;7.47;;;16.10;95.90;;;;;;4951111;28;20554;-78
2022/05/27 04:06:47;;;;;;;12.68;7.72;;;16.10;95.80;;;;;;4942018;29;20031;-79
2022/05/27 04:09:17;;;;;;;10.02;6.63;;;16.10;95.80;;;;;;4948312;28;20051;-79
2022/05/27 04:11:43;;;;;;;10.57;7.43;;;16.10;95.80;;;;;;4932415;29;20823;-79
2022/05/27 04:14:09;;;;;;;11.20;7.78;;;16.20;95.80;;;;;;4957222;28;20126;-79
2022/05/27 04:16:35;;;;;;;10.27;7.68;;;16.20;95.90;;;;;;4947487;28;20035;-80
2022/05/27 04:19:01;;;;;;;12.02;9.38;;;16.20;95.90;;;;;;4945250;28;20837;-79
2022/05/27 04:21:27;;;;;;;12.45;8.27;;;16.20;95.90;;;;;;4953214;28;20027;-79
2022/05/27 04:23:52;;;;;;;13.50;8.70;;;16.20;95.90;;;;;;4945445;28;20777;-79
2022/05/27 04:26:19;;;;;;;11.35;8.43;;;16.20;95.90;;;;;;4949042;28;20066;-80
2022/05/27 04:28:45;;;;;;;11.80;8.43;;;16.30;95.80;;;;;;4955392;28;20034;-79
2022/05/27 04:31:11;;;;;;;10.77;8.50;;;16.30;95.70;;;;;;4945289;28;20047;-79
2022/05/27 04:33:37;;;;;;;13.63;9.15;;;16.30;95.70;;;;;;4930249;29;20040;-80
2022/05/27 04:36:03;;;;;;;13.43;8.27;;;16.30;95.60;;;;;;4929657;29;20059;-77
2022/05/27 04:38:29;;;;;;;12.15;9.07;;;16.30;95.60;;;;;;4948719;28;20023;-77
2022/05/27 04:40:55;;;;;;;13.15;8.88;;;16.30;95.70;;;;;;4946103;28;20048;-78
2022/05/27 04:43:21;;;;;;;14.13;8.68;;;16.30;95.60;;;;;;4954475;28;20023;-80
2022/05/27 04:45:47;;;;;;;14.88;8.73;;;16.30;95.60;;;;;;4947212;28;20061;-70
2022/05/27 04:48:13;;;;;;;12.52;8.27;;;16.30;95.60;;;;;;4938557;28;20062;-77
2022/05/27 04:50:39;;;;;;;9.10;7.97;;;16.40;95.50;;;;;;4954610;28;20082;-78
2022/05/27 04:53:05;;;;;;;11.45;9.50;;;16.40;95.60;;;;;;4944857;28;20476;-77
2022/05/27 04:55:33;;;;;;;10.63;8.65;;;16.40;95.60;;;;;;4940704;28;20039;-78
2022/05/27 04:58:00;;;;;;;12.23;8.05;;;16.40;95.90;;;;;;4928113;29;20042;-80
2022/05/27 05:00:30;;;;;;;13.60;9.38;;;16.40;95.60;;;;;;4957042;28;20027;-79
2022/05/27 05:02:56;;;;;;;12.88;8.63;;;16.40;95.40;;;;;;4952690;28;20452;-79
2022/05/27 05:05:25;;;;;;;12.70;8.25;;;16.40;95.40;;;;;;4962816;28;20038;-79
2022/05/27 05:07:57;;;;;;;13.98;8.30;;;16.40;95.50;;;;;;4942754;28;20028;-79
2022/05/27 05:10:23;;;;;;;17.30;9.35;;;16.40;95.40;;;;;;4954031;28;20672;-79
2022/05/27 05:12:49;;;;;;;11.40;7.35;;;16.50;95.30;;;;;;4946660;28;20110;-77
2022/05/27 05:15:16;;;;;;;11.15;7.93;;;16.50;95.70;;;;;;4943086;28;20528;-68
2022/05/27 05:17:42;;;;;;;11.60;8.07;;;16.40;95.40;;;;;;4944061;28;20059;-76
2022/05/27 05:20:11;;;;;;;13.23;7.90;;;16.40;95.40;;;;;;4940510;28;20042;-71
2022/05/27 05:22:36;;;;;;;10.63;7.47;;;16.40;95.30;;;;;;4947854;28;20109;-76
2022/05/27 05:25:02;;;;;;;8.27;6.85;;;16.40;95.40;;;;;;4951393;28;20031;-75
2022/05/27 05:27:29;;;;;;;11.85;6.35;;;16.30;95.50;;;;;;4955487;28;20031;-76
2022/05/27 05:29:56;;;;;;;6.95;5.20;;;16.30;95.30;;;;;;4946406;28;20446;-74
2022/05/27 05:32:23;;;;;;;6.18;4.97;;;16.20;95.20;;;;;;4948080;28;20042;-73
2022/05/27 05:34:49;;;;;;;10.40;5.55;;;16.30;95.30;;;;;;4948662;28;20039;-77
2022/05/27 05:37:15;;;;;;;9.65;6.68;;;16.30;95.30;;;;;;4939812;28;20101;-77
2022/05/27 05:39:41;;;;;;;8.55;5.45;;;16.50;95.60;;;;;;4947345;28;20050;-77
2022/05/27 05:42:08;;;;;;;7.88;6.05;;;16.50;95.00;;;;;;4945537;28;20377;-76
2022/05/27 05:44:35;;;;;;;10.68;6.43;;;16.50;94.80;;;;;;4957266;28;20495;-77
2022/05/27 05:47:01;;;;;;;9.55;6.72;;;16.60;94.90;;;;;;4963383;28;20047;-77
2022/05/27 05:49:28;;;;;;;11.90;6.85;;;16.70;95.00;;;;;;4961930;28;20645;-76
2022/05/27 05:51:55;;;;;;;7.00;6.30;;;16.70;94.80;;;;;;4964727;28;20482;-77
2022/05/27 05:54:23;;;;;;;10.30;6.47;;;16.70;94.70;;;;;;4946722;28;20032;-77
2022/05/27 05:56:49;;;;;;;8.90;6.40;;;16.80;94.80;;;;;;4960016;28;20039;-77
2022/05/27 05:59:16;;;;;;;9.15;6.57;;;16.90;94.80;;;;;;4961466;28;20033;-77
2022/05/27 06:01:42;;;;;;;8.00;6.57;;;16.90;94.60;;;;;;4945526;28;20106;-77
2022/05/27 06:04:08;;;;;;;7.68;5.63;;;16.90;94.70;;;;;;4944859;28;20039;-78
2022/05/27 06:06:35;;;;;;;6.32;4.70;;;16.90;94.30;;;;;;4948394;28;20042;-76
2022/05/27 06:09:01;;;;;;;5.28;4.20;;;16.80;94.00;;;;;;4922811;29;20059;-76
2022/05/27 06:11:27;;;;;;;5.95;4.28;;;16.70;94.00;;;;;;4947974;28;20038;-76
2022/05/27 06:13:52;;;;;;;8.32;3.50;;;16.70;93.90;;;;;;4941097;28;20062;-76
2022/05/27 06:16:18;;;;;;;6.85;3.25;;;16.60;93.00;;;;;;4954211;28;20063;-75
2022/05/27 06:18:45;;;;;;;7.10;2.83;;;16.40;93.50;;;;;;4947590;28;20026;-76
2022/05/27 06:21:11;;;;;;;6.22;2.75;;;16.30;93.40;;;;;;4939096;28;20095;-73
2022/05/27 06:23:37;;;;;;;3.55;2.40;;;16.30;93.30;;;;;;4942447;28;20039;-73
2022/05/27 06:26:07;;;;;;;6.32;2.97;;;16.40;93.30;;;;;;4938239;28;20045;-74
2022/05/27 06:36:47;;;;;;;3.40;1.67;;;16.70;92.20;;;;;;4938545;28;20038;-73
2022/05/27 06:39:14;;;;;;;4.15;2.20;;;16.90;91.10;;;;;;4920196;28;20094;-74
2022/05/27 06:41:40;;;;;;;3.85;1.98;;;16.90;91.40;;;;;;4922204;28;20015;-74
2022/05/27 06:44:06;;;;;;;6.15;1.67;;;17.00;91.00;;;;;;4946934;28;20032;-74
2022/05/27 06:46:33;;;;;;;3.55;2.28;;;17.20;90.60;;;;;;4946660;28;20031;-74
2022/05/27 06:48:59;;;;;;;5.15;1.50;;;17.30;90.10;;;;;;4931964;28;20063;-72
2022/05/27 06:51:25;;;;;;;3.55;1.63;;;17.70;89.40;;;;;;4936920;28;20131;-74
2022/05/27 06:53:51;;;;;;;5.18;1.63;;;18.10;88.10;;;;;;4941500;28;20039;-74
2022/05/27 06:56:18;;;;;;;3.88;1.70;;;18.40;86.90;;;;;;4945461;28;20035;-74
2022/05/27 06:58:43;;;;;;;3.58;1.40;;;18.80;85.60;;;;;;4942587;28;20134;-73
2022/05/27 07:01:10;;;;;;;2.47;1.48;;;19.00;84.00;;;;;;4942626;28;20141;-73
2022/05/27 07:03:37;;;;;;;5.97;2.00;;;19.20;82.70;;;;;;4946012;28;20091;-74
2022/05/27 07:06:08;;;;;;;2.03;1.50;;;19.40;82.10;;;;;;4933965;28;20039;-74
2022/05/27 07:08:35;;;;;;;3.63;1.25;;;19.40;80.70;;;;;;4936988;28;20674;-74
2022/05/27 07:11:01;;;;;;;6.65;1.77;;;19.40;80.40;;;;;;4952182;28;20037;-74
2022/05/27 07:13:27;;;;;;;4.90;1.70;;;19.20;79.90;;;;;;4942895;28;20487;-74
2022/05/27 07:15:53;;;;;;;5.60;1.60;;;18.90;80.60;;;;;;4935091;28;20078;-74
2022/05/27 07:18:19;;;;;;;2.90;1.40;;;18.70;81.50;;;;;;4942011;28;20062;-74
2022/05/27 07:20:45;;;;;;;6.10;2.20;;;18.50;83.00;;;;;;4946986;28;20053;-74
2022/05/27 07:23:11;;;;;;;2.78;1.63;;;18.50;83.00;;;;;;4951402;28;20505;-74
2022/05/27 07:25:37;;;;;;;3.53;1.85;;;18.50;82.70;;;;;;4933667;28;20035;-74
2022/05/27 07:28:07;;;;;;;5.90;2.00;;;18.60;81.30;;;;;;4933543;28;20031;-74
2022/05/27 07:30:36;;;;;;;3.40;1.33;;;18.70;81.60;;;;;;4938921;28;20062;-75
2022/05/27 07:33:02;;;;;;;4.43;1.58;;;19.00;80.50;;;;;;4946412;28;20805;-74
2022/05/27 07:35:28;;;;;;;5.35;1.70;;;19.30;80.30;;;;;;4937321;28;20187;-73
2022/05/27 07:37:54;;;;;;;5.43;1.60;;;19.50;79.30;;;;;;4942532;28;20056;-74
2022/05/27 07:40:21;;;;;;;4.63;1.30;;;19.70;77.50;;;;;;4932995;28;20521;-74
2022/05/27 07:42:48;;;;;;;3.97;1.45;;;20.00;76.40;;;;;;4934365;28;20027;-74
2022/05/27 07:45:15;;;;;;;6.32;1.55;;;20.00;76.40;;;;;;4937160;28;20647;-75
2022/05/27 07:47:41;;;;;;;4.25;1.58;;;19.90;75.50;;;;;;4933972;28;20037;-74
2022/05/27 07:50:09;;;;;;;6.18;1.67;;;19.90;76.20;;;;;;4941692;28;20479;-74
2022/05/27 07:52:36;;;;;;;3.47;1.38;;;19.90;75.80;;;;;;4944229;28;20027;-74
2022/05/27 07:55:03;;;;;;;3.85;1.80;;;19.90;73.80;;;;;;4946077;28;20034;-75
2022/05/27 07:57:29;;;;;;;4.18;1.60;;;19.60;75.20;;;;;;4934742;28;20031;-75
2022/05/27 07:59:54;;;;;;;5.35;1.70;;;19.30;76.30;;;;;;4937166;28;20390;-75
2022/05/27 08:02:24;;;;;;;2.88;1.70;;;19.10;76.60;;;;;;4936748;28;20066;-74
2022/05/27 08:04:51;;;;;;;6.32;1.65;;;18.80;77.50;;;;;;4933775;28;20081;-68
2022/05/27 08:07:17;;;;;;;3.42;1.63;;;18.80;77.00;;;;;;4937978;28;20039;-72
2022/05/27 08:09:43;;;;;;;6.88;1.60;;;18.90;76.20;;;;;;4937245;28;20806;-73
2022/05/27 08:12:09;;;;;;;7.82;1.63;;;19.00;73.70;;;;;;4937474;28;20042;-74
2022/05/27 08:14:35;;;;;;;4.03;1.50;;;19.20;74.90;;;;;;4946481;28;20043;-73
2022/05/27 08:17:01;;;;;;;6.47;1.50;;;19.20;74.30;;;;;;4938059;28;20051;-70
2022/05/27 08:19:27;;;;;;;3.97;1.60;;;19.10;74.20;;;;;;4944707;28;20047;-74
2022/05/27 08:21:54;;;;;;;5.28;1.70;;;19.20;73.50;;;;;;4935123;28;20585;-74
2022/05/27 08:24:20;;;;;;;4.97;1.30;;;19.30;72.00;;;;;;4932680;28;20041;-73
2022/05/27 08:26:47;;;;;;;3.38;1.50;;;19.60;69.30;;;;;;4938531;28;20035;-73
2022/05/27 08:29:13;;;;;;;5.68;1.50;;;19.70;69.80;;;;;;4939459;28;20043;-73
2022/05/27 08:31:39;;;;;;;4.97;1.70;;;19.90;68.80;;;;;;4943020;28;20511;-73
2022/05/27 08:39:38;;;;;;;4.27;1.50;;;20.60;62.70;;;;;;4935682;28;20027;-71
2022/05/27 08:42:30;;;;;;;5.90;1.70;;;20.20;64.40;;;;;;4941749;28;20326;-73
2022/05/27 08:45:28;;;;;;;6.38;1.75;;;20.20;62.80;;;;;;4944614;28;20023;-73
2022/05/27 08:48:01;;;;;;;5.10;1.42;;;20.10;61.70;;;;;;4930741;29;20451;-73
2022/05/27 08:50:56;;;;;;;3.28;1.30;;;19.90;61.40;;;;;;4946252;28;20399;-72
2022/05/27 08:53:45;;;;;;;5.80;1.50;;;19.60;62.70;;;;;;4942743;28;20036;-72
2022/05/27 08:59:27;;;;;;;3.72;1.20;;;19.30;63.90;;;;;;4947677;28;20089;-72
2022/05/27 09:01:59;;;;;;;6.22;1.75;;;19.40;61.70;;;;;;4937501;28;20043;-70
2022/05/27 09:04:47;;;;;;;3.88;1.45;;;19.50;60.40;;;;;;4947070;28;20051;-69
2022/05/27 09:07:31;;;;;;;5.43;1.58;;;19.60;58.90;;;;;;4942719;28;20039;-71
2022/05/27 09:09:59;;;;;;;5.60;1.35;;;19.70;57.90;;;;;;4943701;28;20039;-73
2022/05/27 09:12:45;;;;;;;4.50;1.48;;;19.70;58.40;;;;;;4942426;28;20078;-73
2022/05/27 09:15:25;;;;;;;9.77;1.63;;;19.60;59.40;;;;;;4943896;28;20490;-71
2022/05/27 09:18:01;;;;;;;5.72;1.42;;;19.70;59.10;;;;;;4936659;28;20028;-74
2022/05/27 09:20:38;;;;;;;8.55;1.50;;;19.70;60.20;;;;;;4932992;28;20035;-74
2022/05/27 09:23:19;;;;;;;4.57;1.10;;;19.70;58.50;;;;;;4939988;28;20027;-72
2022/05/27 09:26:03;;;;;;;4.78;1.30;;;19.60;56.60;;;;;;4949183;28;20041;-74
2022/05/27 09:28:57;;;;;;;7.07;1.38;;;19.50;58.10;;;;;;4945272;28;20038;-74
2022/05/27 09:31:52;;;;;;;6.25;1.63;;;19.60;58.80;;;;;;4942767;28;20126;-74
2022/05/27 09:34:18;;;;;;;4.60;1.10;;;19.90;56.00;;;;;;4940706;28;20055;-74
2022/05/27 09:36:48;;;;;;;11.15;1.95;;;19.90;55.10;;;;;;4934841;28;20031;-74
2022/05/27 09:39:18;;;;;;;4.75;1.23;;;20.20;53.60;;;;;;4933680;28;20043;-75
2022/05/27 09:42:05;;;;;;;6.47;1.40;;;20.40;52.20;;;;;;4935015;28;20744;-74
2022/05/27 09:44:48;;;;;;;11.48;1.58;;;20.50;53.30;;;;;;4937199;28;20039;-71
2022/05/27 09:47:16;;;;;;;9.20;1.55;;;20.50;52.30;;;;;;4938738;28;20773;-73
2022/05/27 09:49:44;;;;;;;7.25;1.40;;;20.70;52.90;;;;;;4941073;28;20679;-73
2022/05/27 09:52:10;;;;;;;7.28;1.45;;;20.90;53.20;;;;;;4939084;28;20126;-72
2022/05/27 09:54:54;;;;;;;7.07;1.77;;;21.20;51.90;;;;;;4938528;28;20115;-74
2022/05/27 09:57:26;;;;;;;4.60;1.27;;;21.40;49.80;;;;;;4946309;28;20048;-75
2022/05/27 09:59:56;;;;;;;2.88;1.10;;;21.30;50.10;;;;;;4943643;28;20039;-74
2022/05/27 10:02:30;;;;;;;4.03;1.20;;;21.30;49.60;;;;;;4943784;28;20062;-75
2022/05/27 10:05:01;;;;;;;4.45;1.10;;;21.40;49.20;;;;;;4934456;28;20043;-74
2022/05/27 10:07:41;;;;;;;8.02;1.52;;;21.70;46.60;;;;;;4945527;28;20792;-74
2022/05/27 10:10:35;;;;;;;7.35;1.30;;;21.70;47.30;;;;;;4938786;28;20053;-75
2022/05/27 10:13:13;;;;;;;8.57;1.40;;;21.50;48.10;;;;;;4932290;28;20078;-75
2022/05/27 10:15:39;;;;;;;6.03;1.45;;;21.10;47.30;;;;;;4934705;28;20507;-75
2022/05/27 10:18:18;;;;;;;5.80;1.52;;;20.90;48.10;;;;;;4935521;28;20031;-75
2022/05/27 10:20:57;;;;;;;4.95;1.33;;;20.80;46.90;;;;;;4934839;28;20488;-72
2022/05/27 10:23:35;;;;;;;4.70;1.40;;;20.90;46.60;;;;;;4942982;28;20660;-74
2022/05/27 10:26:21;;;;;;;6.65;1.58;;;21.00;46.70;;;;;;4938223;28;20077;-72
2022/05/27 10:29:07;;;;;;;;;;;21.20;45.60;;;;;;4935848;28;20031;-73
2022/05/27 10:31:34;;;;;;;3.28;1.20;;;21.30;46.20;;;;;;4932544;28;19918;-72
2022/05/27 10:34:00;;;;;;;4.97;1.52;;;21.50;46.80;;;;;;4935888;28;20038;-72
2022/05/27 10:36:35;;;;;;;2.88;1.13;;;21.70;45.30;;;;;;4936817;28;20699;-72
2022/05/27 10:39:04;;;;;;;6.73;1.60;;;21.80;45.00;;;;;;4947993;28;20162;-73
2022/05/27 10:42:01;;;;;;;5.18;1.52;;;22.00;45.70;;;;;;4923509;28;20101;-72
2022/05/27 10:44:55;;;;;;;4.72;1.42;;;22.40;44.00;;;;;;4938752;28;20035;-71
2022/05/27 10:47:51;;;;;;;6.50;1.58;;;22.90;40.80;;;;;;4939820;28;20058;-69
2022/05/27 10:50:31;;;;;;;3.50;1.10;;;23.90;39.30;;;;;;4935233;28;20818;-71
2022/05/27 10:53:07;;;;;;;5.72;1.50;;;23.90;40.10;;;;;;4932569;28;20573;-73
2022/05/27 10:55:53;;;;;;;3.95;1.20;;;23.70;39.50;;;;;;4939673;28;20043;-71
2022/05/27 11:04:40;;;;;;;3.67;1.30;;;22.80;41.50;;;;;;4935491;28;20793;-72
2022/05/27 11:07:19;;;;;;;3.53;1.50;;;22.20;43.60;;;;;;4933729;28;20129;-72
2022/05/27 11:10:22;;;;;;;6.10;1.20;;;22.00;44.00;;;;;;4940084;28;20107;-72
2022/05/27 11:16:36;;;;;;;10.07;1.60;;;21.40;44.70;;;;;;4942923;28;20049;-66
2022/05/27 11:19:33;;;;;;;7.75;1.85;;;21.20;45.70;;;;;;4936801;28;20039;-70
2022/05/27 11:22:14;;;;;;;7.63;1.73;;;21.10;47.40;;;;;;4939194;28;20031;-70
2022/05/27 11:24:52;;;;;;;8.55;1.48;;;21.30;46.00;;;;;;4933900;28;20032;-70
2022/05/27 11:27:44;;;;;;;5.65;1.42;;;21.30;47.20;;;;;;4934434;28;20090;-65
2022/05/27 11:30:39;;;;;;;5.78;1.50;;;21.50;46.40;;;;;;4925934;28;20043;-70
2022/05/27 11:33:33;;;;;;;6.90;1.38;;;21.80;44.80;;;;;;4931644;28;20150;-70
2022/05/27 11:36:25;;;;;;;6.15;1.45;;;22.00;43.10;;;;;;4934439;28;20130;-70
2022/05/27 11:39:24;;;;;;;5.22;1.08;;;22.10;41.90;;;;;;4928623;28;20048;-70
2022/05/27 11:41:59;;;;;;;8.93;1.73;;;22.00;44.30;;;;;;4940091;28;20031;-70
2022/05/27 11:44:38;;;;;;;7.78;1.55;;;22.00;43.60;;;;;;4942261;28;20113;-70
2022/05/27 11:47:25;;;;;;;5.13;1.30;;;22.10;45.20;;;;;;4936579;28;20108;-67
2022/05/27 11:50:05;;;;;;;3.55;1.02;;;22.30;43.20;;;;;;4932799;28;20067;-71
2022/05/27 11:52:40;;;;;;;8.00;1.70;;;22.30;42.80;;;;;;4936047;28;20087;-71
2022/05/27 11:55:43;;;;;;;5.72;1.50;;;22.00;40.30;;;;;;4940213;28;20043;-72
2022/05/27 11:58:18;;;;;;;6.28;1.83;;;21.70;42.70;;;;;;4935209;28;20067;-71
2022/05/27 12:01:06;;;;;;;13.02;2.92;;;21.20;43.10;;;;;;4935528;28;20479;-71
2022/05/27 12:03:44;;;;;;;8.90;1.45;;;21.00;43.50;;;;;;4943055;28;20521;-71
2022/05/27 12:06:16;;;;;;;6.63;1.45;;;20.80;44.00;;;;;;4941144;28;20206;-70
2022/05/27 12:09:00;;;;;;;6.13;1.80;;;20.80;42.90;;;;;;4939493;28;20078;-71
2022/05/27 12:11:45;;;;;;;7.13;1.52;;;20.80;43.30;;;;;;4941265;28;20121;-71
2022/05/27 12:14:37;;;;;;;7.85;1.70;;;21.00;44.30;;;;;;4937703;28;20142;-70
2022/05/27 12:17:07;;;;;;;9.48;1.60;;;21.10;44.10;;;;;;4941185;28;20106;-71
2022/05/27 12:19:35;;;;;;;6.35;1.38;;;21.30;43.80;;;;;;4941622;28;20038;-71
2022/05/27 12:22:09;;;;;;;6.18;1.58;;;21.50;44.40;;;;;;4945367;28;20890;-71
2022/05/27 12:24:41;;;;;;;7.60;1.33;;;21.70;42.90;;;;;;4936406;28;20122;-70
2022/05/27 12:27:10;;;;;;;6.90;1.60;;;21.70;41.40;;;;;;4920719;28;20066;-70
2022/05/27 12:29:39;;;;;;;5.15;1.48;;;21.90;42.40;;;;;;4935792;28;20394;-72
2022/05/27 12:32:08;;;;;;;6.05;2.15;;;22.30;42.50;;;;;;4952825;28;20049;-68
2022/05/27 12:34:36;;;;;;;6.50;1.52;;;22.50;40.30;;;;;;4938683;28;20035;-67
2022/05/27 12:37:22;;;;;;;4.90;1.13;;;22.60;40.60;;;;;;4937879;28;20038;-67
2022/05/27 12:39:49;;;;;;;3.83;1.38;;;22.30;40.40;;;;;;4939521;28;20027;-67
2022/05/27 12:42:23;;;;;;;9.40;1.50;;;22.20;40.20;;;;;;4940368;28;20046;-68
2022/05/27 12:44:49;;;;;;;12.82;2.40;;;22.10;42.60;;;;;;4941222;28;20114;-67
2022/05/27 12:47:29;;;;;;;9.20;1.73;;;22.00;40.70;;;;;;4935923;28;20081;-67
2022/05/27 12:50:05;;;;;;;6.55;1.42;;;21.60;41.60;;;;;;4936342;28;20550;-67
2022/05/27 12:52:30;;;;;;;6.82;1.48;;;21.30;41.60;;;;;;4939651;28;20035;-67
2022/05/27 12:54:56;;;;;;;7.18;1.20;;;21.20;41.40;;;;;;4942634;28;20046;-66
2022/05/27 13:03:33;;;;;;;3.97;1.10;;;21.20;42.70;;;;;;4939250;28;20154;-68
2022/05/27 13:06:20;;;;;;;3.88;1.00;;;21.70;41.50;;;;;;4940839;28;20817;-67
2022/05/27 13:09:20;;;;;;;4.55;1.13;;;21.90;42.40;;;;;;4932984;28;20027;-67
2022/05/27 13:11:46;;;;;;;8.63;1.67;;;22.00;41.20;;;;;;4917955;28;20074;-68
2022/05/27 13:14:23;;;;;;;5.28;1.20;;;22.10;41.90;;;;;;4932219;28;20118;-67
2022/05/27 13:17:04;;;;;;;7.25;1.23;;;22.20;41.40;;;;;;4939238;28;20138;-67
2022/05/27 13:19:42;;;;;;;6.10;1.63;;;22.10;39.10;;;;;;4939326;28;20027;-68
2022/05/27 13:22:37;;;;;;;6.18;1.33;;;21.80;39.20;;;;;;4916369;28;20043;-67
2022/05/27 13:25:24;;;;;;;6.63;1.33;;;21.60;41.10;;;;;;4932696;28;20043;-68
2022/05/27 13:27:55;;;;;;;7.13;1.58;;;21.60;41.40;;;;;;4934136;28;20046;-67
2022/05/27 13:30:43;;;;;;;10.77;1.67;;;21.70;41.30;;;;;;4944491;28;20046;-68
2022/05/27 13:33:12;;;;;;;5.72;1.65;;;21.90;41.60;;;;;;4937063;28;20177;-68
2022/05/27 13:35:42;;;;;;;6.85;1.60;;;21.60;40.60;;;;;;4941374;28;20039;-68
2022/05/27 13:38:20;;;;;;;7.57;1.70;;;21.10;42.70;;;;;;4932295;28;20054;-68
2022/05/27 13:40:47;;;;;;;3.70;1.30;;;20.80;43.50;;;;;;4933905;28;20070;-68
2022/05/27 13:43:29;;;;;;;6.38;1.50;;;20.70;43.40;;;;;;4934589;28;20039;-68
2022/05/27 13:46:10;;;;;;;5.40;1.38;;;20.70;42.60;;;;;;4938568;28;20035;-67
2022/05/27 13:48:45;;;;;;;10.02;1.65;;;20.80;42.10;;;;;;4945435;28;20122;-68
2022/05/27 13:51:16;;;;;;;6.10;1.65;;;20.80;43.50;;;;;;4938605;28;20032;-68
2022/05/27 13:53:43;;;;;;;5.82;1.77;;;21.20;43.50;;;;;;4953403;28;20031;-69